Time;durP1;ratioP1;P1;durP2;ratioP2;P2;SDS_P1;SDS_P2;PMS_P1;PMS_P2;Temp;Humidity;BMP_temperature;BMP_pressure;BME280_temperature;BME280_humidity;BME280_pressure;Samples;Min_cycle;Max_cycle;Signal;HPM_P1;HPM_P2
2022/07/27 00:01:58;;;;;;;5.13;3.83;;;24.00;26.20;;;;;;4975094;28;20217;-72
2022/07/27 00:04:24;;;;;;;4.93;3.47;;;24.20;26.00;;;;;;4981442;28;20771;-72
2022/07/27 00:06:49;;;;;;;6.37;3.87;;;24.10;26.30;;;;;;4977895;28;20179;-72
2022/07/27 00:09:17;;;;;;;7.03;3.77;;;24.10;27.00;;;;;;4978081;28;20261;-72
2022/07/27 00:11:43;;;;;;;5.50;3.50;;;24.10;27.30;;;;;;4979932;28;20210;-72
2022/07/27 00:14:08;;;;;;;6.00;3.73;;;24.00;26.10;;;;;;4977148;28;20450;-72
2022/07/27 00:16:34;;;;;;;5.57;3.70;;;24.00;27.20;;;;;;4990019;28;20198;-72
2022/07/27 00:18:59;;;;;;;6.00;3.60;;;23.90;25.70;;;;;;4991561;28;20292;-72
2022/07/27 00:21:25;;;;;;;6.13;3.70;;;24.00;26.00;;;;;;4974146;28;20209;-72
2022/07/27 00:23:52;;;;;;;6.10;3.50;;;24.00;26.60;;;;;;4976956;28;20652;-72
2022/07/27 00:26:17;;;;;;;7.60;3.70;;;23.80;26.90;;;;;;4988364;28;20184;-72
2022/07/27 00:28:43;;;;;;;6.43;3.90;;;23.80;27.10;;;;;;4986951;28;20429;-72
2022/07/27 00:31:09;;;;;;;6.37;3.53;;;23.80;26.80;;;;;;4978423;28;20890;-73
2022/07/27 00:33:34;;;;;;;5.40;3.40;;;24.10;26.10;;;;;;4975438;28;20275;-72
2022/07/27 00:36:01;;;;;;;6.83;3.93;;;24.20;26.20;;;;;;4975842;28;20193;-72
2022/07/27 00:38:27;;;;;;;6.20;3.70;;;24.10;26.30;;;;;;4987959;28;20625;-73
2022/07/27 00:40:53;;;;;;;4.30;4.07;;;24.10;27.50;;;;;;4985653;28;20494;-74
2022/07/27 00:43:19;;;;;;;5.07;3.53;;;24.10;26.30;;;;;;4981742;28;20460;-72
2022/07/27 00:45:44;;;;;;;4.63;3.97;;;24.00;26.30;;;;;;4976420;28;20263;-72
2022/07/27 00:48:10;;;;;;;5.07;3.90;;;24.10;26.40;;;;;;4983565;28;20178;-72
2022/07/27 00:50:37;;;;;;;5.73;3.50;;;24.00;26.20;;;;;;4977149;28;20190;-72
2022/07/27 00:53:03;;;;;;;7.43;3.80;;;23.90;27.00;;;;;;4976013;28;20184;-72
2022/07/27 00:55:31;;;;;;;6.30;3.73;;;23.90;27.10;;;;;;4973594;28;20900;-73
2022/07/27 00:57:57;;;;;;;6.10;3.67;;;23.80;27.40;;;;;;4974873;28;20835;-74
2022/07/27 01:00:23;;;;;;;7.43;3.67;;;23.70;26.90;;;;;;4969170;28;20489;-72
2022/07/27 01:02:49;;;;;;;8.47;4.33;;;23.20;26.90;;;;;;4984908;28;21121;-72
2022/07/27 01:05:14;;;;;;;5.77;3.83;;;22.80;27.50;;;;;;4979632;28;20189;-72
2022/07/27 01:07:41;;;;;;;5.90;3.43;;;22.80;28.00;;;;;;4987682;28;20231;-73
2022/07/27 01:10:07;;;;;;;5.23;3.90;;;22.70;27.40;;;;;;4982728;28;20598;-72
2022/07/27 01:12:32;;;;;;;7.70;4.20;;;22.90;28.00;;;;;;4990007;28;20516;-72
2022/07/27 01:14:59;;;;;;;5.13;4.10;;;22.90;28.50;;;;;;4979797;28;20197;-72
2022/07/27 01:17:26;;;;;;;7.43;4.50;;;23.30;27.90;;;;;;4971431;28;20228;-76
2022/07/27 01:19:52;;;;;;;13.27;3.80;;;23.30;28.30;;;;;;4973667;28;20481;-72
2022/07/27 01:22:18;;;;;;;5.90;3.80;;;23.40;27.20;;;;;;4973273;28;20446;-72
2022/07/27 01:24:44;;;;;;;10.47;4.10;;;23.40;27.90;;;;;;4985018;28;20262;-72
2022/07/27 01:27:09;;;;;;;7.20;3.97;;;23.30;28.30;;;;;;4979131;28;20584;-72
2022/07/27 01:29:36;;;;;;;7.27;4.23;;;23.20;28.80;;;;;;4973546;28;20446;-72
2022/07/27 01:32:02;;;;;;;4.20;3.87;;;23.10;28.00;;;;;;4978804;28;20209;-72
2022/07/27 01:34:28;;;;;;;7.90;4.10;;;23.10;29.40;;;;;;4987170;28;20451;-73
2022/07/27 01:36:54;;;;;;;4.80;3.40;;;23.10;29.10;;;;;;4986152;28;20576;-74
2022/07/27 01:39:20;;;;;;;5.97;4.13;;;23.20;28.30;;;;;;4974552;28;20544;-72
2022/07/27 01:41:46;;;;;;;9.93;4.00;;;23.10;27.70;;;;;;4980612;28;21566;-72
2022/07/27 01:44:12;;;;;;;6.07;4.27;;;23.10;27.70;;;;;;4980031;28;20534;-72
2022/07/27 01:46:37;;;;;;;6.90;4.57;;;23.20;28.10;;;;;;4986250;28;20428;-72
2022/07/27 01:49:03;;;;;;;7.07;3.70;;;23.30;28.40;;;;;;4977455;28;20429;-72
2022/07/27 01:51:29;;;;;;;6.87;4.10;;;23.10;29.30;;;;;;4988465;28;20222;-74
2022/07/27 01:53:55;;;;;;;6.30;3.83;;;22.90;29.20;;;;;;4973478;28;20993;-74
2022/07/27 01:56:20;;;;;;;8.60;4.30;;;23.00;29.30;;;;;;4973023;28;20203;-72
2022/07/27 01:58:46;;;;;;;5.03;4.00;;;22.80;28.80;;;;;;4977782;28;20301;-72
2022/07/27 02:01:11;;;;;;;5.10;3.90;;;22.80;28.70;;;;;;4972936;28;20202;-72
2022/07/27 02:03:37;;;;;;;4.90;4.30;;;22.70;29.10;;;;;;4981345;28;20185;-72
2022/07/27 02:06:03;;;;;;;10.83;4.70;;;22.70;30.40;;;;;;4980823;28;20181;-72
2022/07/27 02:08:29;;;;;;;7.43;3.80;;;22.70;31.00;;;;;;4973510;28;20253;-72
2022/07/27 02:13:46;;;;;;;10.67;4.80;;;22.50;31.10;;;;;;4978581;28;20494;-74
2022/07/27 02:16:15;;;;;;;10.30;4.37;;;22.50;29.90;;;;;;4981525;28;20458;-73
2022/07/27 02:18:41;;;;;;;8.00;4.37;;;22.40;29.90;;;;;;4988805;28;20511;-72
2022/07/27 02:21:07;;;;;;;6.93;4.57;;;22.30;30.90;;;;;;4971166;28;20470;-72
2022/07/27 02:23:34;;;;;;;6.73;4.37;;;22.30;31.00;;;;;;4979177;28;20433;-72
2022/07/27 02:26:00;;;;;;;10.33;4.80;;;22.40;31.50;;;;;;4981182;28;20425;-73
2022/07/27 02:28:26;;;;;;;6.10;4.50;;;22.50;30.00;;;;;;4972803;28;20440;-73
2022/07/27 02:30:51;;;;;;;8.47;5.03;;;22.50;29.80;;;;;;4974963;28;20471;-72
2022/07/27 02:33:17;;;;;;;6.27;4.40;;;22.60;30.00;;;;;;4974718;28;20812;-72
2022/07/27 02:35:43;;;;;;;22.30;5.20;;;22.50;29.80;;;;;;4978326;28;20262;-72
2022/07/27 02:38:08;;;;;;;6.83;4.23;;;22.60;30.10;;;;;;4974902;28;20599;-72
2022/07/27 02:40:34;;;;;;;6.57;4.30;;;22.70;29.10;;;;;;4967134;28;20217;-73
2022/07/27 02:42:59;;;;;;;7.77;4.33;;;22.80;29.70;;;;;;4976022;28;20187;-73
2022/07/27 02:45:25;;;;;;;6.20;4.50;;;22.90;29.40;;;;;;4975427;28;20215;-72
2022/07/27 02:47:51;;;;;;;7.40;4.60;;;22.90;29.50;;;;;;4981748;28;20176;-72
2022/07/27 02:50:16;;;;;;;10.87;4.37;;;23.10;29.10;;;;;;4979887;28;20189;-72
2022/07/27 02:52:42;;;;;;;9.30;4.60;;;23.10;29.50;;;;;;4970452;28;20228;-72
2022/07/27 02:55:08;;;;;;;8.27;4.63;;;22.90;28.80;;;;;;4971676;28;20657;-72
2022/07/27 02:57:36;;;;;;;6.47;4.77;;;22.80;29.20;;;;;;4974740;28;20196;-72
2022/07/27 03:00:04;;;;;;;8.50;4.70;;;22.90;29.80;;;;;;4982989;28;21052;-72
2022/07/27 03:02:30;;;;;;;8.80;4.60;;;23.00;28.30;;;;;;4990793;28;20449;-72
2022/07/27 03:04:56;;;;;;;6.83;4.60;;;22.90;28.50;;;;;;4974399;28;20440;-72
2022/07/27 03:07:21;;;;;;;8.00;4.30;;;22.90;28.40;;;;;;4980778;28;20181;-72
2022/07/27 03:09:47;;;;;;;10.27;4.70;;;22.80;30.50;;;;;;4988453;28;20174;-73
2022/07/27 03:12:12;;;;;;;8.50;4.83;;;22.60;29.80;;;;;;4979637;28;20558;-72
2022/07/27 03:14:38;;;;;;;7.90;4.57;;;22.50;29.80;;;;;;4972360;28;20193;-73
2022/07/27 03:17:03;;;;;;;7.60;4.80;;;22.50;29.70;;;;;;4972903;28;20174;-72
2022/07/27 03:19:29;;;;;;;7.93;4.37;;;22.50;29.50;;;;;;4979451;28;20207;-72
2022/07/27 03:21:55;;;;;;;8.73;5.07;;;22.50;30.00;;;;;;4972179;28;20789;-72
2022/07/27 03:24:20;;;;;;;8.13;4.90;;;22.50;29.50;;;;;;4970926;28;20205;-72
2022/07/27 03:26:46;;;;;;;8.10;4.70;;;22.40;29.50;;;;;;4972073;28;20763;-72
2022/07/27 03:29:12;;;;;;;7.43;4.53;;;22.50;30.40;;;;;;4972808;28;20181;-72
2022/07/27 03:31:38;;;;;;;6.87;4.83;;;22.40;30.80;;;;;;4983167;28;20746;-73
2022/07/27 03:34:03;;;;;;;8.37;4.87;;;22.40;32.10;;;;;;4972478;28;20543;-74
2022/07/27 03:36:29;;;;;;;7.10;4.53;;;22.20;30.90;;;;;;4971325;28;20452;-72
2022/07/27 03:38:54;;;;;;;6.30;4.50;;;22.20;30.40;;;;;;4972610;28;20205;-72
2022/07/27 03:41:20;;;;;;;6.07;4.50;;;22.20;30.20;;;;;;4980158;28;20713;-72
2022/07/27 03:43:46;;;;;;;10.57;4.33;;;22.20;31.60;;;;;;4979765;28;20252;-72
2022/07/27 03:46:12;;;;;;;6.43;4.50;;;22.10;30.60;;;;;;4981985;28;20431;-72
2022/07/27 03:48:39;;;;;;;7.33;4.90;;;22.20;30.20;;;;;;4979069;28;20180;-72
2022/07/27 03:51:05;;;;;;;6.30;4.40;;;22.30;30.00;;;;;;4979261;28;20217;-72
2022/07/27 03:53:31;;;;;;;7.53;4.93;;;22.50;29.50;;;;;;4983052;28;20437;-72
2022/07/27 03:55:56;;;;;;;6.47;4.73;;;22.50;30.00;;;;;;4975410;28;20425;-72
2022/07/27 03:58:22;;;;;;;8.27;4.93;;;22.80;28.00;;;;;;4974013;28;20251;-72
2022/07/27 04:00:49;;;;;;;7.37;5.00;;;22.80;28.40;;;;;;4979469;28;20199;-72
2022/07/27 04:03:14;;;;;;;9.53;5.37;;;22.70;30.10;;;;;;4987159;28;20182;-72
2022/07/27 04:05:40;;;;;;;9.63;5.10;;;;;;;;;;4972133;28;20502;-73
2022/07/27 04:08:06;;;;;;;7.17;5.00;;;22.50;29.80;;;;;;4974692;28;20575;-75
2022/07/27 04:10:32;;;;;;;7.03;5.13;;;22.50;30.00;;;;;;4979467;28;20428;-72
2022/07/27 04:12:58;;;;;;;11.53;6.00;;;22.40;30.60;;;;;;4987936;28;20225;-73
2022/07/27 04:15:23;;;;;;;9.13;5.20;;;22.30;30.30;;;;;;4978348;28;20263;-73
2022/07/27 04:17:49;;;;;;;8.30;5.00;;;;;;;;;;4976715;28;20485;-72
2022/07/27 04:20:15;;;;;;;6.50;5.10;;;21.90;30.30;;;;;;4987519;28;20211;-73
2022/07/27 04:22:41;;;;;;;10.10;4.93;;;22.10;30.70;;;;;;4974741;28;20444;-73
2022/07/27 04:25:07;;;;;;;7.60;4.77;;;22.30;31.40;;;;;;4977903;28;20184;-72
2022/07/27 04:27:32;;;;;;;5.43;4.30;;;22.20;30.50;;;;;;4984264;28;20242;-72
2022/07/27 04:29:58;;;;;;;7.90;4.90;;;22.40;30.20;;;;;;4984283;28;20432;-72
2022/07/27 04:32:24;;;;;;;7.70;4.50;;;22.40;30.60;;;;;;4984476;28;20685;-72
2022/07/27 04:34:50;;;;;;;9.13;5.07;;;;;;;;;;4994214;28;20185;-72
2022/07/27 04:37:15;;;;;;;7.93;5.63;;;22.80;29.40;;;;;;4985836;28;20618;-73
2022/07/27 04:39:41;;;;;;;8.30;4.83;;;22.80;29.80;;;;;;4981273;28;20589;-72
2022/07/27 04:42:07;;;;;;;6.87;4.93;;;22.80;29.30;;;;;;4968616;28;20283;-72
2022/07/27 04:44:33;;;;;;;6.70;4.73;;;22.80;29.60;;;;;;4985391;28;20192;-72
2022/07/27 04:46:58;;;;;;;14.13;5.20;;;22.90;28.80;;;;;;4965500;28;20856;-72
2022/07/27 04:49:24;;;;;;;7.17;5.07;;;22.90;28.50;;;;;;4976135;28;20428;-72
2022/07/27 04:51:50;;;;;;;9.47;5.30;;;22.80;28.50;;;;;;4988993;28;20301;-73
2022/07/27 04:54:16;;;;;;;11.43;5.63;;;22.80;29.40;;;;;;4982719;28;20182;-74
2022/07/27 04:56:41;;;;;;;15.43;5.80;;;22.40;29.30;;;;;;4985696;28;20267;-76
2022/07/27 04:59:08;;;;;;;11.40;6.27;;;;;;;;;;4975024;28;20992;-72
2022/07/27 05:01:33;;;;;;;12.50;6.17;;;21.40;32.10;;;;;;4978944;28;20207;-72
2022/07/27 05:03:59;;;;;;;10.10;6.60;;;21.70;32.00;;;;;;4978266;28;20520;-72
2022/07/27 05:06:24;;;;;;;9.77;6.77;;;21.90;31.30;;;;;;4986608;28;20268;-73
2022/07/27 05:08:50;;;;;;;10.30;6.53;;;;;;;;;;4983142;28;20644;-73
2022/07/27 05:11:16;;;;;;;10.27;6.93;;;21.30;32.20;;;;;;4982233;28;20205;-72
2022/07/27 05:13:43;;;;;;;9.13;6.47;;;;;;;;;;4975907;28;20437;-74
2022/07/27 05:16:09;;;;;;;11.00;7.27;;;20.80;34.40;;;;;;4990728;28;20648;-72
2022/07/27 05:18:36;;;;;;;35.03;7.00;;;20.80;34.50;;;;;;4993043;28;20954;-72
2022/07/27 05:21:02;;;;;;;8.13;6.53;;;21.10;33.60;;;;;;4980226;28;20953;-72
2022/07/27 05:23:28;;;;;;;10.07;6.70;;;20.90;34.50;;;;;;4969742;28;20434;-75
2022/07/27 05:25:54;;;;;;;11.03;6.70;;;21.40;33.00;;;;;;4970968;28;20971;-72
2022/07/27 05:28:19;;;;;;;13.90;5.60;;;21.70;32.00;;;;;;4971779;28;20191;-72
2022/07/27 05:30:45;;;;;;;10.50;6.67;;;21.30;32.50;;;;;;4969301;28;20249;-72
2022/07/27 05:33:10;;;;;;;25.13;7.30;;;21.70;32.20;;;;;;4978649;28;20178;-72
2022/07/27 05:35:36;;;;;;;18.90;6.33;;;21.80;32.60;;;;;;4989905;28;20209;-73
2022/07/27 05:38:03;;;;;;;11.50;6.50;;;22.40;30.50;;;;;;4973696;28;20186;-72
2022/07/27 05:40:28;;;;;;;10.57;6.73;;;22.50;30.20;;;;;;4970882;28;20210;-73
2022/07/27 05:42:54;;;;;;;11.10;6.80;;;22.90;29.80;;;;;;4976665;28;20456;-73
2022/07/27 05:45:20;;;;;;;10.03;6.00;;;23.00;29.90;;;;;;4974439;28;20178;-72
2022/07/27 05:47:46;;;;;;;9.90;6.47;;;23.00;30.40;;;;;;4973821;28;20445;-72
2022/07/27 05:50:12;;;;;;;9.77;6.70;;;22.90;29.70;;;;;;4971394;28;20189;-72
2022/07/27 05:52:37;;;;;;;13.80;6.83;;;22.50;31.00;;;;;;4975174;28;20217;-73
2022/07/27 05:55:04;;;;;;;20.40;6.13;;;22.20;31.70;;;;;;4976914;28;20213;-75
2022/07/27 05:57:30;;;;;;;8.67;6.10;;;;;;;;;;4973610;28;20198;-75
2022/07/27 05:59:57;;;;;;;12.07;6.90;;;22.20;31.30;;;;;;4980821;28;20473;-76
2022/07/27 06:02:23;;;;;;;14.93;7.00;;;22.10;31.70;;;;;;4970641;28;20987;-75
2022/07/27 06:04:49;;;;;;;13.43;7.10;;;21.80;33.30;;;;;;4971457;28;20433;-74
2022/07/27 06:09:59;;;;;;;12.00;7.60;;;21.70;33.00;;;;;;4969725;28;20213;-74
2022/07/27 06:12:26;;;;;;;10.23;7.70;;;21.80;32.60;;;;;;4969037;28;20544;-75
2022/07/27 06:14:52;;;;;;;21.33;7.40;;;22.10;32.20;;;;;;4971600;28;20441;-74
2022/07/27 06:17:18;;;;;;;12.53;7.43;;;22.10;32.10;;;;;;4967265;28;20456;-74
2022/07/27 06:19:44;;;;;;;23.13;8.20;;;21.60;33.70;;;;;;4967702;28;20206;-74
2022/07/27 06:22:09;;;;;;;15.17;7.23;;;21.50;33.90;;;;;;4966915;28;20588;-75
2022/07/27 06:24:35;;;;;;;11.40;7.40;;;21.90;33.90;;;;;;4956283;28;20516;-74
2022/07/27 06:27:01;;;;;;;20.17;7.97;;;22.00;32.70;;;;;;4983564;28;20182;-75
2022/07/27 06:29:27;;;;;;;25.33;7.33;;;21.40;34.50;;;;;;4982022;28;20335;-74
2022/07/27 06:31:53;;;;;;;15.17;8.20;;;;;;;;;;4975724;28;20227;-73
2022/07/27 06:34:18;;;;;;;10.70;7.40;;;22.30;34.00;;;;;;4974155;28;20440;-74
2022/07/27 06:36:44;;;;;;;23.00;7.90;;;23.10;31.00;;;;;;4986052;28;20441;-72
2022/07/27 06:39:13;;;;;;;9.40;7.10;;;22.70;31.30;;;;;;4979269;28;20208;-74
2022/07/27 06:41:38;;;;;;;15.53;7.70;;;22.50;31.50;;;;;;4983683;28;20281;-72
2022/07/27 06:44:04;;;;;;;12.30;8.30;;;22.40;32.00;;;;;;4981898;28;20442;-72
2022/07/27 06:46:30;;;;;;;13.60;7.00;;;22.40;32.20;;;;;;4979810;28;20221;-72
2022/07/27 06:48:55;;;;;;;15.07;7.30;;;22.70;31.00;;;;;;4984431;28;20190;-72
2022/07/27 06:51:22;;;;;;;13.73;7.13;;;22.70;32.00;;;;;;4970851;28;20211;-73
2022/07/27 06:53:51;;;;;;;15.90;8.00;;;22.90;30.40;;;;;;4972672;28;20248;-72
2022/07/27 06:56:18;;;;;;;12.83;7.60;;;22.50;31.10;;;;;;4982785;28;20437;-74
2022/07/27 06:58:44;;;;;;;13.10;7.83;;;22.40;31.70;;;;;;4969691;28;20993;-72
2022/07/27 07:01:09;;;;;;;17.00;8.40;;;21.90;33.20;;;;;;4969573;28;20460;-72
2022/07/27 07:03:35;;;;;;;13.43;7.60;;;21.80;33.50;;;;;;4974703;28;20214;-74
2022/07/27 07:06:01;;;;;;;15.90;7.40;;;21.80;34.20;;;;;;4978303;28;20601;-72
2022/07/27 07:08:26;;;;;;;17.00;8.10;;;22.70;31.20;;;;;;4969519;28;20182;-72
2022/07/27 07:10:52;;;;;;;15.30;8.83;;;22.60;30.80;;;;;;4967189;28;20210;-72
2022/07/27 07:13:18;;;;;;;13.77;7.97;;;;;;;;;;4969537;28;21787;-73
2022/07/27 07:15:44;;;;;;;11.57;8.20;;;22.00;32.80;;;;;;4978186;28;20199;-73
2022/07/27 07:18:11;;;;;;;11.60;8.87;;;22.00;33.60;;;;;;4980556;28;20425;-74
2022/07/27 07:20:37;;;;;;;19.30;8.90;;;23.10;31.60;;;;;;4975303;28;20469;-73
2022/07/27 07:23:04;;;;;;;13.10;8.60;;;22.90;31.20;;;;;;4978181;28;20439;-72
2022/07/27 07:25:31;;;;;;;23.03;8.60;;;22.90;31.90;;;;;;4980211;28;20451;-73
2022/07/27 07:27:57;;;;;;;13.10;8.03;;;23.00;33.30;;;;;;4988161;28;20446;-73
2022/07/27 07:30:23;;;;;;;19.80;8.53;;;22.90;31.60;;;;;;4978067;28;20436;-73
2022/07/27 07:32:49;;;;;;;15.13;8.77;;;22.90;31.70;;;;;;4972271;28;20440;-73
2022/07/27 07:35:15;;;;;;;15.53;9.13;;;22.80;31.70;;;;;;4979655;28;20191;-72
2022/07/27 07:37:41;;;;;;;11.53;8.43;;;22.70;32.30;;;;;;4973487;28;20439;-73
2022/07/27 07:40:09;;;;;;;13.00;7.60;;;22.10;34.30;;;;;;4983301;28;20479;-72
2022/07/27 07:42:53;;;;;;;12.13;7.97;;;22.10;34.80;;;;;;4987625;28;20220;-73
2022/07/27 07:45:20;;;;;;;16.57;7.77;;;22.90;31.70;;;;;;4976683;28;20425;-73
2022/07/27 07:47:46;;;;;;;10.77;7.70;;;22.90;32.40;;;;;;4982319;28;20425;-72
2022/07/27 07:50:12;;;;;;;23.83;8.50;;;23.90;30.10;;;;;;4983273;28;20514;-72
2022/07/27 07:52:38;;;;;;;9.80;7.30;;;23.30;30.90;;;;;;4975657;28;20519;-72
2022/07/27 07:55:04;;;;;;;12.57;8.30;;;23.70;30.20;;;;;;4974314;28;20851;-73
2022/07/27 07:57:29;;;;;;;11.10;8.27;;;23.80;30.20;;;;;;4982845;28;20676;-73
2022/07/27 07:59:55;;;;;;;11.07;8.00;;;24.20;30.60;;;;;;4974206;28;20460;-73
2022/07/27 08:02:20;;;;;;;10.97;7.30;;;24.40;30.10;;;;;;4979256;28;20249;-73
2022/07/27 08:04:46;;;;;;;19.00;7.53;;;24.70;29.30;;;;;;4987159;28;20268;-73
2022/07/27 08:07:12;;;;;;;8.97;7.70;;;24.80;29.40;;;;;;4983544;28;20272;-73
2022/07/27 08:09:38;;;;;;;13.37;8.60;;;23.40;29.50;;;;;;4983617;28;20186;-72
2022/07/27 08:12:05;;;;;;;16.40;8.90;;;23.10;30.80;;;;;;4975847;28;20232;-72
2022/07/27 08:14:31;;;;;;;11.20;7.90;;;23.80;30.60;;;;;;4980033;28;20272;-72
2022/07/27 08:16:57;;;;;;;12.63;8.07;;;23.90;31.00;;;;;;4986224;28;20437;-76
2022/07/27 08:19:22;;;;;;;10.33;8.43;;;24.40;30.30;;;;;;4978236;28;20952;-72
2022/07/27 08:21:48;;;;;;;13.00;9.03;;;24.00;29.00;;;;;;4988494;28;20205;-73
2022/07/27 08:24:14;;;;;;;12.77;8.00;;;23.70;30.00;;;;;;4978620;28;20188;-72
2022/07/27 08:26:39;;;;;;;13.30;7.80;;;24.00;30.00;;;;;;4986506;28;20192;-73
2022/07/27 08:29:05;;;;;;;10.23;7.40;;;24.10;29.70;;;;;;4986633;28;20221;-72
2022/07/27 08:31:30;;;;;;;19.50;8.33;;;24.40;29.90;;;;;;4983066;28;20217;-72
2022/07/27 08:33:56;;;;;;;12.23;8.50;;;24.40;29.60;;;;;;4980762;28;20660;-73
2022/07/27 08:36:22;;;;;;;13.53;8.00;;;24.80;29.40;;;;;;4978094;28;20182;-73
2022/07/27 08:38:47;;;;;;;14.17;8.67;;;25.20;29.60;;;;;;4993754;28;20209;-74
2022/07/27 08:41:14;;;;;;;12.30;7.33;;;25.20;28.10;;;;;;4986353;28;20197;-72
2022/07/27 08:43:44;;;;;;;13.33;8.70;;;24.00;29.00;;;;;;4975055;28;20186;-74
2022/07/27 08:46:10;;;;;;;12.93;7.50;;;24.10;30.50;;;;;;4978536;28;20441;-75
2022/07/27 08:48:38;;;;;;;10.80;8.00;;;24.60;30.70;;;;;;4978998;28;20955;-75
2022/07/27 08:51:06;;;;;;;18.80;8.17;;;24.90;28.30;;;;;;4977604;28;20472;-73
2022/07/27 08:53:32;;;;;;;17.00;7.80;;;25.20;27.50;;;;;;4974587;28;20449;-74
2022/07/27 08:55:58;;;;;;;12.17;7.77;;;25.30;28.50;;;;;;4976225;28;20449;-74
2022/07/27 08:58:24;;;;;;;11.93;7.43;;;;;;;;;;4975009;28;20861;-73
2022/07/27 09:00:50;;;;;;;20.67;9.67;;;24.50;28.10;;;;;;4974020;28;20218;-72
2022/07/27 09:03:17;;;;;;;14.87;8.80;;;24.20;28.50;;;;;;4979161;28;20923;-72
2022/07/27 09:05:45;;;;;;;16.30;7.70;;;24.00;29.10;;;;;;4994000;28;20186;-73
2022/07/27 09:08:13;;;;;;;14.13;7.73;;;24.30;29.40;;;;;;4972822;28;20441;-74
2022/07/27 09:10:39;;;;;;;13.00;7.40;;;25.30;28.30;;;;;;4973942;28;20449;-73
2022/07/27 09:13:24;;;;;;;9.47;7.57;;;25.30;28.80;;;;;;4974307;28;20449;-75
2022/07/27 09:15:51;;;;;;;11.03;8.20;;;25.70;27.90;;;;;;4971335;28;20473;-72
2022/07/27 09:18:22;;;;;;;10.83;7.37;;;25.40;26.90;;;;;;4971415;28;20892;-73
2022/07/27 09:21:27;;;;;;;16.33;7.90;;;25.70;27.80;;;;;;4978570;28;20496;-72
2022/07/27 09:24:13;;;;;;;14.03;7.63;;;25.70;26.70;;;;;;4872260;29;20957;-72
2022/07/27 09:26:39;;;;;;;18.60;8.30;;;25.50;26.50;;;;;;4878585;29;20433;-74
2022/07/27 09:29:11;;;;;;;15.50;7.77;;;25.90;28.00;;;;;;4877971;29;20446;-73
2022/07/27 09:31:41;;;;;;;10.47;7.83;;;25.80;25.90;;;;;;4873988;29;20531;-75
2022/07/27 09:34:08;;;;;;;18.27;7.00;;;25.70;26.70;;;;;;4879023;29;20457;-73
2022/07/27 09:36:49;;;;;;;10.53;7.60;;;26.00;26.40;;;;;;4877905;29;20550;-74
2022/07/27 09:39:21;;;;;;;13.50;8.03;;;26.30;26.70;;;;;;4861504;29;20554;-71
2022/07/27 09:41:49;;;;;;;12.40;8.33;;;26.60;25.20;;;;;;4875388;29;20901;-72
2022/07/27 09:44:15;;;;;;;10.40;8.53;;;26.50;25.80;;;;;;4877166;29;20528;-74
2022/07/27 09:46:43;;;;;;;14.53;8.60;;;26.40;25.10;;;;;;4876620;29;21227;-72
2022/07/27 09:49:31;;;;;;;11.80;8.60;;;26.00;25.50;;;;;;4877749;29;20870;-73
2022/07/27 09:51:58;;;;;;;22.37;8.60;;;25.80;27.40;;;;;;4881888;29;20477;-72
2022/07/27 09:54:24;;;;;;;11.87;8.43;;;25.90;26.50;;;;;;4918328;28;20453;-73
2022/07/27 09:57:01;;;;;;;13.80;7.50;;;25.90;27.00;;;;;;4971345;28;20437;-72
2022/07/27 09:59:28;;;;;;;13.23;8.00;;;25.50;26.60;;;;;;4975574;28;20964;-72
2022/07/27 10:01:55;;;;;;;12.97;7.40;;;25.40;27.60;;;;;;4990808;28;20448;-72
2022/07/27 10:04:22;;;;;;;14.63;6.87;;;26.60;26.00;;;;;;4986729;28;20796;-72
2022/07/27 10:06:48;;;;;;;17.33;6.67;;;26.60;26.60;;;;;;4968506;28;20450;-72
2022/07/27 10:09:14;;;;;;;9.90;6.60;;;27.70;23.80;;;;;;4973793;28;20918;-72
2022/07/27 10:11:40;;;;;;;14.30;8.03;;;27.70;24.20;;;;;;4973741;28;20560;-72
2022/07/27 10:14:06;;;;;;;10.30;6.73;;;27.80;23.80;;;;;;4975111;28;20209;-72
2022/07/27 10:16:33;;;;;;;13.73;6.70;;;28.00;24.40;;;;;;4981418;28;20927;-74
2022/07/27 10:19:05;;;;;;;9.37;6.40;;;28.20;23.00;;;;;;4990082;28;20483;-72
2022/07/27 10:21:36;;;;;;;14.50;7.23;;;27.70;24.10;;;;;;4986741;28;20445;-72
2022/07/27 10:24:07;;;;;;;10.27;6.33;;;28.10;23.30;;;;;;4981129;28;20429;-72
2022/07/27 10:26:40;;;;;;;20.50;7.10;;;28.10;23.10;;;;;;4988420;28;20432;-73
2022/07/27 10:29:17;;;;;;;11.67;7.43;;;28.20;22.70;;;;;;4980624;28;20795;-74
2022/07/27 10:31:58;;;;;;;14.50;6.97;;;27.60;22.10;;;;;;4983641;28;20444;-72
2022/07/27 10:34:38;;;;;;;12.63;6.13;;;26.80;24.20;;;;;;4974265;28;20434;-72
2022/07/27 10:37:08;;;;;;;30.40;6.90;;;27.50;25.20;;;;;;4988008;28;20428;-72
2022/07/27 10:39:37;;;;;;;9.87;6.57;;;28.10;23.30;;;;;;4973408;28;20465;-72
2022/07/27 10:42:23;;;;;;;16.70;6.00;;;28.40;22.40;;;;;;4973039;28;20782;-72
2022/07/27 10:44:58;;;;;;;25.73;6.97;;;27.20;23.50;;;;;;4980532;28;20425;-72
2022/07/27 10:47:51;;;;;;;14.80;6.30;;;27.30;24.00;;;;;;4981006;28;20421;-72
2022/07/27 10:50:17;;;;;;;8.00;6.37;;;28.10;21.70;;;;;;4975916;28;20433;-72
2022/07/27 10:52:57;;;;;;;10.93;7.07;;;28.30;23.70;;;;;;4981847;28;20976;-72
2022/07/27 10:55:28;;;;;;;12.30;6.57;;;27.90;23.10;;;;;;4976897;28;20185;-72
2022/07/27 10:58:15;;;;;;;14.37;5.77;;;28.00;22.70;;;;;;4973756;28;20439;-72
2022/07/27 11:00:49;;;;;;;14.20;6.53;;;28.20;22.20;;;;;;4942579;28;20886;-72
2022/07/27 11:03:34;;;;;;;9.33;6.27;;;28.30;22.00;;;;;;4987171;28;20943;-72
2022/07/27 11:08:33;;;;;;;10.50;5.90;;;27.60;21.70;;;;;;4938842;28;20462;-69
2022/07/27 11:11:00;;;;;;;7.90;6.20;;;26.90;25.40;;;;;;4958377;28;20426;-69
2022/07/27 11:13:28;;;;;;;11.63;6.10;;;27.70;23.80;;;;;;4937309;29;20414;-70
2022/07/27 11:16:02;;;;;;;6.47;5.60;;;28.20;22.20;;;;;;4944867;28;20425;-70
2022/07/27 11:18:31;;;;;;;12.67;5.23;;;28.70;21.10;;;;;;4919859;29;20418;-69
2022/07/27 11:21:16;;;;;;;7.83;5.60;;;28.70;20.30;;;;;;4926233;29;20439;-70
2022/07/27 11:23:47;;;;;;;9.00;5.47;;;29.20;20.90;;;;;;4914345;29;20502;-69
2022/07/27 11:26:14;;;;;;;7.90;5.10;;;29.50;19.20;;;;;;4915258;29;20979;-69
2022/07/27 11:28:39;;;;;;;7.70;5.70;;;29.90;18.90;;;;;;4927834;29;20419;-69
2022/07/27 11:31:07;;;;;;;10.17;5.00;;;29.10;19.00;;;;;;4925635;29;20939;-69
2022/07/27 11:33:33;;;;;;;7.13;4.93;;;27.90;21.50;;;;;;4918178;29;20171;-69
2022/07/27 11:36:04;;;;;;;7.00;4.50;;;28.00;20.10;;;;;;4925994;29;20465;-69
2022/07/27 11:38:53;;;;;;;3.63;3.43;;;29.50;18.30;;;;;;4914234;29;20455;-69
2022/07/27 11:41:28;;;;;;;7.97;3.83;;;31.00;14.50;;;;;;4917000;29;20451;-70
2022/07/27 11:43:58;;;;;;;12.93;4.07;;;30.60;15.80;;;;;;4929283;29;20411;-69
2022/07/27 11:46:30;;;;;;;6.93;4.50;;;30.20;16.00;;;;;;4921593;29;20431;-70
2022/07/27 11:48:57;;;;;;;10.80;5.17;;;30.30;18.10;;;;;;4924361;29;20790;-69
2022/07/27 11:51:23;;;;;;;14.93;5.30;;;31.70;17.30;;;;;;4937918;28;20960;-70
2022/07/27 11:53:59;;;;;;;12.80;4.83;;;32.50;15.80;;;;;;4923671;29;20439;-72
2022/07/27 11:56:26;;;;;;;10.17;5.00;;;31.60;15.80;;;;;;4934546;29;20465;-69
2022/07/27 11:59:06;;;;;;;7.83;4.50;;;29.60;18.60;;;;;;4935328;29;20576;-68
2022/07/27 12:01:47;;;;;;;8.70;5.07;;;29.40;18.90;;;;;;4925891;29;20431;-70
2022/07/27 12:04:27;;;;;;;9.93;5.50;;;30.00;18.60;;;;;;4927849;29;20431;-69
2022/07/27 12:06:57;;;;;;;5.83;4.70;;;30.60;18.90;;;;;;4943267;29;20465;-69
2022/07/27 12:09:24;;;;;;;5.90;4.70;;;31.70;17.70;;;;;;4925405;29;20439;-68
2022/07/27 12:12:14;;;;;;;8.93;4.70;;;30.80;16.50;;;;;;4929341;28;20486;-70
2022/07/27 12:14:53;;;;;;;7.70;4.40;;;30.50;18.50;;;;;;4928837;29;20436;-70
2022/07/27 12:17:20;;;;;;;6.80;4.63;;;32.00;17.10;;;;;;4935334;29;20456;-69
2022/07/27 12:20:10;;;;;;;7.63;4.73;;;31.40;16.10;;;;;;4935190;29;20459;-68
2022/07/27 12:22:38;;;;;;;6.80;4.70;;;29.50;17.80;;;;;;4945409;29;20877;-70
2022/07/27 12:25:18;;;;;;;5.13;3.80;;;28.70;18.50;;;;;;4938337;29;20430;-70
2022/07/27 12:27:57;;;;;;;5.77;4.60;;;29.40;18.50;;;;;;4931865;29;20491;-71
2022/07/27 12:30:36;;;;;;;6.30;4.70;;;30.40;17.20;;;;;;4919340;29;20951;-70
2022/07/27 12:33:04;;;;;;;10.53;4.43;;;31.30;15.40;;;;;;4924778;29;20434;-70
2022/07/27 12:35:33;;;;;;;7.20;4.10;;;31.30;15.80;;;;;;4928500;29;20482;-70
2022/07/27 12:38:05;;;;;;;6.53;4.40;;;31.00;15.60;;;;;;4922526;29;20440;-69
2022/07/27 12:40:32;;;;;;;10.23;4.60;;;30.40;15.90;;;;;;4920217;29;20456;-70
2022/07/27 12:43:03;;;;;;;8.20;4.87;;;30.10;17.70;;;;;;4930530;29;20479;-69
2022/07/27 12:45:34;;;;;;;7.70;4.70;;;30.40;17.10;;;;;;4925499;29;20424;-70
2022/07/27 12:48:05;;;;;;;8.77;4.27;;;31.30;16.50;;;;;;4924209;29;20458;-69
2022/07/27 12:50:32;;;;;;;7.87;4.10;;;31.90;15.20;;;;;;4925761;29;20423;-70
2022/07/27 12:52:57;;;;;;;6.10;4.20;;;32.50;14.50;;;;;;4917008;29;20427;-70
2022/07/27 12:55:24;;;;;;;6.27;4.10;;;32.60;14.70;;;;;;4925530;29;20880;-70
2022/07/27 12:57:52;;;;;;;7.63;4.20;;;32.20;15.40;;;;;;4927620;29;20371;-69